Silver City, South Dakota
Current Conditions -  °F | °C
As of 9:58 PM on Monday 26 Jan 2015 (Local Time) from KRCA Reporting Station
Clear Clear  
Wind Chill: 41°   Ceiling: Unl
Heat Index: 44°   Visibility: 10mi
Dew Point: 27°   Wind: 6mph
Humidity: 51%   Direction: 270°W
Pressure: 29.97"   Gusts: NA
Location:  44.07°N, 103.324°W
Report Text: KRCA 270458Z AUTO 27005KT 10SM CLR 07/M03 A2997 RMK AO2 SLP149 T00671027 $
Loading
Personal Weather Stations






























Interactive Weather Map New forecast layout! Learn more

10-Day Weather Forecast

Advertisements
Track Severe Weather on mobile